Time;durP1;ratioP1;P1;durP2;ratioP2;P2;SDS_P1;SDS_P2;PMS_P1;PMS_P2;Temp;Humidity;BMP_temperature;BMP_pressure;BME280_temperature;BME280_humidity;BME280_pressure;Samples;Min_cycle;Max_cycle;Signal;HPM_P1;HPM_P2
2022/12/04 00:03:28;;;;;;;16.38;10.63;;;;;;;;;;8336075;28;20060;-63
2022/12/04 00:07:28;;;;;;;13.97;10.03;;;;;;;;;;8337488;28;20044;-62
2022/12/04 00:11:29;;;;;;;16.80;9.80;;;;;;;;;;8338148;28;20267;-62
2022/12/04 00:15:30;;;;;;;13.15;9.23;;;;;;;;;;8338230;28;20052;-62
2022/12/04 00:19:30;;;;;;;12.82;9.43;;;;;;;;;;8336374;28;20326;-63
2022/12/04 00:23:31;;;;;;;11.05;8.80;;;;;;;;;;8335424;28;20036;-63
2022/12/04 00:27:31;;;;;;;11.30;8.75;;;;;;;;;;8334539;28;20023;-62
2022/12/04 00:31:31;;;;;;;10.67;8.03;;;;;;;;;;8336325;28;20144;-62
2022/12/04 00:35:31;;;;;;;10.80;8.30;;;;;;;;;;8341445;28;20348;-63
2022/12/04 00:39:32;;;;;;;14.23;9.10;;;;;;;;;;8337244;28;20060;-63
2022/12/04 00:43:32;;;;;;;13.55;10.10;;;;;;;;;;8335627;28;20262;-63
2022/12/04 00:47:32;;;;;;;11.65;8.70;;;;;;;;;;8335765;28;20032;-62
2022/12/04 00:51:32;;;;;;;13.55;9.60;;;;;;;;;;8335343;28;20017;-65
2022/12/04 00:55:33;;;;;;;10.70;8.48;;;;;;;;;;8335684;28;20044;-63
2022/12/04 00:59:33;;;;;;;11.18;8.20;;;;;;;;;;8335931;28;20024;-64
2022/12/04 01:03:34;;;;;;;11.00;8.50;;;;;;;;;;8334820;28;20328;-62
2022/12/04 01:07:34;;;;;;;11.95;8.75;;;;;;;;;;8337600;28;20369;-63
2022/12/04 01:11:35;;;;;;;9.50;8.00;;;;;;;;;;8335031;28;20608;-63
2022/12/04 01:15:41;;;;;;;11.80;8.50;;;;;;;;;;8332241;28;20044;-62
2022/12/04 01:19:41;;;;;;;12.10;8.90;;;;;;;;;;8335196;28;20465;-62
2022/12/04 01:23:42;;;;;;;11.30;8.43;;;;;;;;;;8335043;28;20028;-62
2022/12/04 01:27:43;;;;;;;12.00;9.88;;;;;;;;;;8335899;28;20310;-63
2022/12/04 01:31:43;;;;;;;13.30;9.40;;;;;;;;;;8332178;28;20560;-62
2022/12/04 01:35:50;;;;;;;12.48;9.43;;;;;;;;;;8331047;28;20355;-62
2022/12/04 01:39:51;;;;;;;14.00;9.70;;;;;;;;;;8333879;28;20178;-64
2022/12/04 01:44:10;;;;;;;10.57;7.57;;;;;;;;;;8337837;28;20033;-62
2022/12/04 01:48:15;;;;;;;11.73;9.10;;;;;;;;;;8338958;28;20037;-62
2022/12/04 01:52:19;;;;;;;12.95;9.50;;;;;;;;;;8340791;28;20021;-62
2022/12/04 01:56:21;;;;;;;10.30;8.25;;;;;;;;;;8340568;28;20067;-62
2022/12/04 02:00:23;;;;;;;13.88;10.38;;;;;;;;;;8338232;28;20070;-63
2022/12/04 02:04:23;;;;;;;10.50;8.75;;;;;;;;;;8341524;28;20039;-63
2022/12/04 02:08:24;;;;;;;11.70;8.70;;;;;;;;;;8337548;28;20059;-62
2022/12/04 02:12:43;;;;;;;11.05;8.23;;;;;;;;;;8339373;28;20039;-62
2022/12/04 02:17:01;;;;;;;10.07;8.05;;;;;;;;;;8339444;28;20041;-62
2022/12/04 02:21:07;;;;;;;9.80;7.95;;;;;;;;;;8339945;28;20029;-63
2022/12/04 02:25:07;;;;;;;11.20;9.10;;;;;;;;;;8339185;28;20559;-63
2022/12/04 02:29:10;;;;;;;11.57;9.05;;;;;;;;;;8338996;28;20084;-62
2022/12/04 02:33:11;;;;;;;9.75;7.75;;;;;;;;;;8338169;28;20041;-62
2022/12/04 02:37:14;;;;;;;9.20;8.00;;;;;;;;;;8337834;28;20107;-63
2022/12/04 02:41:19;;;;;;;10.85;8.70;;;;;;;;;;8340632;28;20054;-63
2022/12/04 02:45:19;;;;;;;;;;;;;;;;;;8336533;28;20090;-62
2022/12/04 02:49:25;;;;;;;12.32;8.93;;;;;;;;;;8341711;28;20015;-63
2022/12/04 02:53:28;;;;;;;10.20;7.97;;;;;;;;;;8340356;28;20649;-62
2022/12/04 02:57:32;;;;;;;10.93;8.52;;;;;;;;;;8339215;28;20136;-63
2022/12/04 03:01:34;;;;;;;10.57;8.68;;;;;;;;;;8341640;28;20416;-63
2022/12/04 03:05:38;;;;;;;11.43;8.60;;;;;;;;;;8339855;28;20025;-62
2022/12/04 03:09:43;;;;;;;10.85;8.85;;;;;;;;;;8340669;28;20032;-63
2022/12/04 03:13:49;;;;;;;11.68;9.02;;;;;;;;;;8339305;28;20029;-63
2022/12/04 03:17:57;;;;;;;10.65;8.63;;;;;;;;;;8341020;28;20940;-62
2022/12/04 03:21:58;;;;;;;12.10;8.50;;;;;;;;;;8338280;28;20024;-63
2022/12/04 03:26:04;;;;;;;9.52;8.18;;;;;;;;;;8338566;28;20085;-62
2022/12/04 03:30:07;;;;;;;11.23;8.20;;;;;;;;;;8338621;28;20036;-62
2022/12/04 03:34:08;;;;;;;12.57;9.52;;;;;;;;;;8339273;28;20028;-63
2022/12/04 03:38:15;;;;;;;10.98;8.55;;;;;;;;;;8339307;28;20060;-62
2022/12/04 03:42:19;;;;;;;12.02;9.23;;;;;;;;;;8338909;28;20469;-62
2022/12/04 03:46:25;;;;;;;13.43;9.65;;;;;;;;;;8340009;28;20044;-62
2022/12/04 03:50:32;;;;;;;11.57;8.48;;;;;;;;;;8340765;28;20025;-63
2022/12/04 03:54:36;;;;;;;12.45;9.15;;;;;;;;;;8339364;28;20527;-63
2022/12/04 03:58:37;;;;;;;;;;;;;;;;;;8340819;28;20091;-62
2022/12/04 04:02:40;;;;;;;11.57;9.15;;;;;;;;;;8338667;28;20405;-63
2022/12/04 04:06:51;;;;;;;12.13;8.73;;;;;;;;;;8355186;28;20037;-62
2022/12/04 04:10:54;;;;;;;13.02;9.95;;;;;;;;;;8338817;28;20404;-62
2022/12/04 04:27:58;;;;;;;12.70;9.75;;;;;;;;;;8335557;28;20099;-64
2022/12/04 04:32:14;;;;;;;13.88;10.00;;;;;;;;;;8335657;28;20040;-63
2022/12/04 04:36:21;;;;;;;12.82;9.68;;;;;;;;;;8335362;28;20490;-62
2022/12/04 04:40:34;;;;;;;14.10;9.82;;;;;;;;;;8340385;28;20028;-63
2022/12/04 04:44:57;;;;;;;13.30;10.70;;;;;;;;;;8336614;28;20578;-62
2022/12/04 04:49:00;;;;;;;12.30;9.27;;;;;;;;;;8328411;28;20493;-62
2022/12/04 04:53:03;;;;;;;13.55;9.73;;;;;;;;;;8335854;28;20025;-62
2022/12/04 04:57:03;;;;;;;14.48;10.88;;;;;;;;;;8334505;28;20024;-64
2022/12/04 05:01:05;;;;;;;12.75;10.18;;;;;;;;;;8334813;28;20029;-62
2022/12/04 05:05:06;;;;;;;13.75;9.80;;;;;;;;;;8332383;28;20031;-63
2022/12/04 05:09:06;;;;;;;12.10;9.18;;;;;;;;;;8335955;28;20064;-64
2022/12/04 05:13:07;;;;;;;12.98;9.68;;;;;;;;;;8333379;28;20032;-63
2022/12/04 05:17:07;;;;;;;13.43;9.23;;;;;;;;;;8333883;28;20186;-62
2022/12/04 05:21:15;;;;;;;12.07;9.52;;;;;;;;;;8336113;28;20141;-63
2022/12/04 05:25:15;;;;;;;14.43;9.48;;;;;;;;;;8334902;28;20112;-62
2022/12/04 05:29:15;;;;;;;13.30;9.93;;;;;;;;;;8334169;28;20055;-63
2022/12/04 05:33:15;;;;;;;15.00;10.25;;;;;;;;;;8335337;28;20283;-62
2022/12/04 05:37:16;;;;;;;15.90;10.07;;;;;;;;;;8338244;28;20025;-63
2022/12/04 05:41:16;;;;;;;15.48;10.57;;;;;;;;;;8337080;28;20260;-62
2022/12/04 05:45:16;;;;;;;13.70;9.40;;;;;;;;;;8337799;28;20028;-63
2022/12/04 05:49:16;;;;;;;13.93;9.63;;;;;;;;;;8335402;28;20931;-62
2022/12/04 05:53:17;;;;;;;13.23;8.98;;;;;;;;;;8335427;28;20039;-63
2022/12/04 05:57:17;;;;;;;13.20;9.25;;;;;;;;;;8336176;28;20024;-62
2022/12/04 06:01:19;;;;;;;11.57;8.07;;;;;;;;;;8332807;28;20036;-62
2022/12/04 06:05:19;;;;;;;13.57;9.02;;;;;;;;;;8331475;28;20032;-63
2022/12/04 06:09:19;;;;;;;12.33;9.17;;;;;;;;;;8336619;28;20028;-63
2022/12/04 06:13:19;;;;;;;13.57;9.18;;;;;;;;;;8338733;28;20309;-62
2022/12/04 06:17:20;;;;;;;11.73;8.68;;;;;;;;;;8341378;28;20490;-63
2022/12/04 06:21:21;;;;;;;12.20;8.25;;;;;;;;;;8334012;28;20030;-63
2022/12/04 06:25:21;;;;;;;15.70;10.30;;;;;;;;;;8336184;28;20031;-62
2022/12/04 06:29:21;;;;;;;14.73;8.93;;;;;;;;;;8335098;28;20140;-62
2022/12/04 06:33:22;;;;;;;13.17;9.17;;;;;;;;;;8336728;28;20369;-62
2022/12/04 06:37:23;;;;;;;13.18;8.80;;;;;;;;;;8340249;28;20341;-62
2022/12/04 06:41:24;;;;;;;14.75;9.93;;;;;;;;;;8340986;28;20079;-62
2022/12/04 06:45:24;;;;;;;14.23;9.63;;;;;;;;;;8340710;28;20033;-63
2022/12/04 06:49:25;;;;;;;13.03;9.30;;;;;;;;;;8342864;28;21043;-63
2022/12/04 06:53:26;;;;;;;13.05;8.88;;;;;;;;;;8340127;28;20371;-63
2022/12/04 06:57:26;;;;;;;13.57;8.32;;;;;;;;;;8342215;28;20128;-62
2022/12/04 07:01:29;;;;;;;11.65;8.65;;;;;;;;;;8337860;28;20056;-62
2022/12/04 07:05:30;;;;;;;12.70;9.07;;;;;;;;;;8340212;28;20083;-62
2022/12/04 07:09:30;;;;;;;13.57;9.37;;;;;;;;;;8339392;28;20033;-63
2022/12/04 07:13:30;;;;;;;13.15;9.13;;;;;;;;;;8340350;28;20271;-62
2022/12/04 07:17:30;;;;;;;14.07;9.77;;;;;;;;;;8337670;28;20040;-63
2022/12/04 07:21:31;;;;;;;12.70;9.00;;;;;;;;;;8339225;28;20028;-63
2022/12/04 07:25:31;;;;;;;14.87;9.67;;;;;;;;;;8340324;28;20045;-63
2022/12/04 07:29:31;;;;;;;14.40;9.53;;;;;;;;;;8339103;28;20313;-62
2022/12/04 07:33:31;;;;;;;14.93;10.18;;;;;;;;;;8338365;28;20270;-63
2022/12/04 07:37:34;;;;;;;15.63;10.23;;;;;;;;;;8336642;28;20035;-63
2022/12/04 07:41:34;;;;;;;17.90;10.85;;;;;;;;;;8338617;28;20029;-62
2022/12/04 07:45:35;;;;;;;19.63;10.17;;;;;;;;;;8334287;28;20037;-63
2022/12/04 07:49:35;;;;;;;17.55;10.80;;;;;;;;;;8337839;28;20287;-63
2022/12/04 07:53:36;;;;;;;18.17;10.60;;;;;;;;;;8338503;28;20099;-63
2022/12/04 07:57:36;;;;;;;20.58;11.93;;;;;;;;;;8335482;28;20063;-63
2022/12/04 08:01:37;;;;;;;22.58;11.30;;;;;;;;;;8339344;28;20033;-62
2022/12/04 08:05:37;;;;;;;20.55;12.07;;;;;;;;;;8337499;28;20036;-62
2022/12/04 08:09:37;;;;;;;21.55;10.93;;;;;;;;;;8338493;28;20603;-63
2022/12/04 08:13:37;;;;;;;18.83;11.30;;;;;;;;;;8334365;28;20033;-63
2022/12/04 08:17:37;;;;;;;18.75;11.63;;;;;;;;;;8336524;28;20411;-63
2022/12/04 08:21:38;;;;;;;21.60;11.77;;;;;;;;;;8337021;28;20642;-63
2022/12/04 08:25:39;;;;;;;18.98;11.27;;;;;;;;;;8337693;28;21275;-62
2022/12/04 08:29:39;;;;;;;21.38;11.90;;;;;;;;;;8336780;28;20032;-63
2022/12/04 08:33:40;;;;;;;22.58;11.52;;;;;;;;;;8337349;28;20269;-63
2022/12/04 08:37:40;;;;;;;19.27;11.75;;;;;;;;;;8337706;28;20032;-63
2022/12/04 08:41:40;;;;;;;19.50;11.65;;;;;;;;;;8342930;28;20087;-63
2022/12/04 08:45:40;;;;;;;20.23;11.27;;;;;;;;;;8340525;28;20068;-63
2022/12/04 08:49:41;;;;;;;20.88;11.50;;;;;;;;;;8339592;28;20060;-63
2022/12/04 08:53:41;;;;;;;19.67;11.97;;;;;;;;;;8337289;28;20033;-62
2022/12/04 08:57:41;;;;;;;20.30;11.43;;;;;;;;;;8337536;28;20287;-62
2022/12/04 09:01:41;;;;;;;20.40;11.95;;;;;;;;;;8336174;28;20584;-62
2022/12/04 09:05:42;;;;;;;20.10;11.63;;;;;;;;;;8334979;28;20545;-63
2022/12/04 09:09:42;;;;;;;22.77;12.82;;;;;;;;;;8336104;28;20687;-63
2022/12/04 09:13:43;;;;;;;19.50;11.82;;;;;;;;;;8336934;28;20507;-63
2022/12/04 09:17:43;;;;;;;18.45;10.57;;;;;;;;;;8335476;28;20036;-62
2022/12/04 09:21:43;;;;;;;19.67;11.82;;;;;;;;;;8335290;28;20411;-63
2022/12/04 09:25:43;;;;;;;19.97;11.63;;;;;;;;;;8336868;28;20025;-63
2022/12/04 09:29:43;;;;;;;21.70;12.30;;;;;;;;;;8333843;28;20383;-62
2022/12/04 09:33:44;;;;;;;20.27;12.02;;;;;;;;;;8335214;28;20446;-62
2022/12/04 09:37:44;;;;;;;20.45;11.63;;;;;;;;;;8337536;28;20028;-63
2022/12/04 09:41:49;;;;;;;21.25;12.05;;;;;;;;;;8333095;28;20097;-63
2022/12/04 09:45:52;;;;;;;19.02;11.75;;;;;;;;;;8331116;28;20105;-63
2022/12/04 09:49:55;;;;;;;23.48;11.57;;;;;;;;;;8331272;28;20273;-63
2022/12/04 09:54:02;;;;;;;19.30;11.10;;;;;;;;;;8331097;28;20559;-63
2022/12/04 09:58:03;;;;;;;20.15;12.27;;;;;;;;;;8327573;28;20037;-64
2022/12/04 10:02:22;;;;;;;26.65;13.43;;;;;;;;;;8327966;28;20037;-63
2022/12/04 10:06:27;;;;;;;23.75;11.80;;;;;;;;;;8328180;28;20456;-63
2022/12/04 10:10:38;;;;;;;20.55;11.80;;;;;;;;;;8334134;28;20135;-63
2022/12/04 10:14:55;;;;;;;19.27;11.10;;;;;;;;;;8336866;28;20059;-62
2022/12/04 10:19:03;;;;;;;19.48;10.95;;;;;;;;;;8332410;28;20033;-63
2022/12/04 10:23:06;;;;;;;20.10;10.80;;;;;;;;;;8331428;28;20049;-64
2022/12/04 10:27:13;;;;;;;17.13;10.40;;;;;;;;;;8330378;28;20821;-64
2022/12/04 10:31:14;;;;;;;18.85;10.90;;;;;;;;;;8329645;28;20044;-63
2022/12/04 10:35:18;;;;;;;19.10;10.55;;;;;;;;;;8332794;28;20029;-63
2022/12/04 10:39:25;;;;;;;15.93;10.30;;;;;;;;;;8332315;28;20469;-63
2022/12/04 10:43:26;;;;;;;18.80;11.48;;;;;;;;;;8333861;28;20047;-63
2022/12/04 10:47:27;;;;;;;19.67;11.68;;;;;;;;;;8335384;28;20136;-63
2022/12/04 10:51:30;;;;;;;19.48;10.98;;;;;;;;;;8336320;28;20033;-63
2022/12/04 10:55:31;;;;;;;22.00;10.77;;;;;;;;;;8337019;28;20692;-62
2022/12/04 10:59:33;;;;;;;20.80;10.82;;;;;;;;;;8332385;28;20453;-63
2022/12/04 11:03:33;;;;;;;18.38;9.80;;;;;;;;;;8334042;28;20371;-63
2022/12/04 11:07:47;;;;;;;16.52;10.30;;;;;;;;;;8328237;28;20379;-63
2022/12/04 11:11:47;;;;;;;29.15;10.65;;;;;;;;;;8334695;28;20024;-63
2022/12/04 11:15:53;;;;;;;20.85;10.57;;;;;;;;;;8334396;28;20072;-63
2022/12/04 11:20:04;;;;;;;24.45;10.73;;;;;;;;;;8333666;28;20017;-62
2022/12/04 11:24:05;;;;;;;21.08;10.20;;;;;;;;;;8337894;28;20028;-63
2022/12/04 11:28:05;;;;;;;35.50;10.73;;;;;;;;;;8337304;28;20055;-63
2022/12/04 11:32:05;;;;;;;30.37;10.50;;;;;;;;;;8335089;28;20491;-62
2022/12/04 11:36:27;;;;;;;27.48;10.13;;;;;;;;;;8333986;28;20843;-63
2022/12/04 11:40:28;;;;;;;30.05;11.10;;;;;;;;;;8327310;28;20033;-62
2022/12/04 11:44:29;;;;;;;14.70;9.68;;;;;;;;;;8335614;28;20064;-63
2022/12/04 11:48:30;;;;;;;16.55;9.55;;;;;;;;;;8333475;28;20041;-63
2022/12/04 11:52:36;;;;;;;20.45;10.70;;;;;;;;;;8333621;28;20043;-62
2022/12/04 11:57:02;;;;;;;23.27;10.73;;;;;;;;;;8333765;28;20024;-63
2022/12/04 12:01:12;;;;;;;17.90;10.30;;;;;;;;;;8316612;28;20044;-64
2022/12/04 12:05:18;;;;;;;24.55;10.65;;;;;;;;;;8333846;28;20021;-62
2022/12/04 12:09:21;;;;;;;21.67;9.45;;;;;;;;;;8334272;28;20020;-63
2022/12/04 12:13:26;;;;;;;45.83;12.02;;;;;;;;;;8330265;28;20150;-63
2022/12/04 12:17:41;;;;;;;32.20;10.82;;;;;;;;;;8333099;28;20028;-64
2022/12/04 12:21:41;;;;;;;;;;;;;;;;;;8335334;28;20530;-62
2022/12/04 12:25:41;;;;;;;17.55;10.60;;;;;;;;;;8334680;28;19971;-62
2022/12/04 12:29:59;;;;;;;36.88;11.70;;;;;;;;;;8333037;28;20028;-62
2022/12/04 12:34:02;;;;;;;26.67;11.90;;;;;;;;;;8335197;28;20029;-64
2022/12/04 12:38:26;;;;;;;21.43;10.63;;;;;;;;;;8332380;28;20476;-63
2022/12/04 12:42:33;;;;;;;30.40;10.82;;;;;;;;;;8313210;28;20075;-63
2022/12/04 12:46:36;;;;;;;52.30;11.32;;;;;;;;;;8329543;28;20047;-63
2022/12/04 12:50:50;;;;;;;19.20;10.80;;;;;;;;;;8335016;28;20708;-63
2022/12/04 12:54:54;;;;;;;28.90;10.32;;;;;;;;;;8335481;28;20048;-64
2022/12/04 12:58:56;;;;;;;59.03;11.23;;;;;;;;;;8333573;28;20032;-63
2022/12/04 13:02:59;;;;;;;28.95;10.80;;;;;;;;;;8328154;28;20036;-63
2022/12/04 13:07:20;;;;;;;48.53;10.70;;;;;;;;;;8330163;28;20033;-68
2022/12/04 13:11:22;;;;;;;26.48;10.38;;;;;;;;;;8334492;28;20268;-63
2022/12/04 13:15:29;;;;;;;55.40;11.15;;;;;;;;;;8334660;28;20439;-63
2022/12/04 13:19:52;;;;;;;140.02;12.52;;;;;;;;;;8333711;28;20461;-63
2022/12/04 13:23:52;;;;;;;84.45;12.13;;;;;;;;;;8335741;28;20032;-62
2022/12/04 13:27:52;;;;;;;127.35;13.00;;;;;;;;;;8334880;28;20899;-62
2022/12/04 13:31:52;;;;;;;158.25;12.98;;;;;;;;;;8332693;28;20644;-61
2022/12/04 13:35:53;;;;;;;179.60;12.48;;;;;;;;;;8330359;28;20672;-62
2022/12/04 13:40:11;;;;;;;171.18;12.38;;;;;;;;;;8328108;28;20021;-62
2022/12/04 13:44:13;;;;;;;144.10;11.98;;;;;;;;;;8327015;28;20013;-63
2022/12/04 13:48:24;;;;;;;215.63;14.07;;;;;;;;;;8331397;28;20689;-63
2022/12/04 13:52:35;;;;;;;140.48;11.05;;;;;;;;;;8326878;28;20351;-63
2022/12/04 13:56:36;;;;;;;96.25;10.30;;;;;;;;;;8330634;28;20473;-64
2022/12/04 14:00:38;;;;;;;455.25;17.83;;;;;;;;;;8329912;28;20037;-63
2022/12/04 14:04:45;;;;;;;167.40;12.35;;;;;;;;;;8328530;28;20021;-63
2022/12/04 14:08:45;;;;;;;149.77;12.38;;;;;;;;;;8330133;28;20976;-63
2022/12/04 14:12:54;;;;;;;276.73;14.93;;;;;;;;;;8330147;28;20080;-63
2022/12/04 14:16:55;;;;;;;152.13;12.43;;;;;;;;;;8325448;28;20040;-62
2022/12/04 14:20:58;;;;;;;312.90;16.95;;;;;;;;;;8330048;28;20021;-62
2022/12/04 14:25:05;;;;;;;352.83;18.23;;;;;;;;;;8330862;28;20028;-62
2022/12/04 14:29:18;;;;;;;339.85;16.65;;;;;;;;;;8323834;28;20817;-62
2022/12/04 14:33:20;;;;;;;236.02;13.23;;;;;;;;;;8328006;28;20406;-62
2022/12/04 14:37:24;;;;;;;332.17;16.52;;;;;;;;;;8325024;28;20644;-63
2022/12/04 14:41:25;;;;;;;283.23;14.82;;;;;;;;;;8330276;28;20231;-63
2022/12/04 14:45:48;;;;;;;318.30;16.92;;;;;;;;;;8329892;28;20308;-63
2022/12/04 14:50:07;;;;;;;129.38;13.10;;;;;;;;;;8314633;28;20371;-63
2022/12/04 14:54:10;;;;;;;221.98;13.85;;;;;;;;;;8329605;28;20028;-63
2022/12/04 14:58:29;;;;;;;273.90;15.45;;;;;;;;;;8326619;28;20033;-62
2022/12/04 15:02:37;;;;;;;63.50;10.90;;;;;;;;;;8327106;28;20114;-62
2022/12/04 15:06:37;;;;;;;100.90;12.35;;;;;;;;;;8329081;28;20044;-63
2022/12/04 15:14:57;;;;;;;236.77;14.98;;;;;;;;;;8330893;28;20399;-65
2022/12/04 15:18:59;;;;;;;373.77;18.00;;;;;;;;;;8330596;28;20265;-62
2022/12/04 15:23:00;;;;;;;100.63;12.48;;;;;;;;;;8336928;28;20343;-63
2022/12/04 15:27:01;;;;;;;99.00;12.68;;;;;;;;;;8329672;28;20117;-63
2022/12/04 15:31:03;;;;;;;125.80;13.73;;;;;;;;;;8327408;28;20142;-62
2022/12/04 15:35:08;;;;;;;108.20;12.57;;;;;;;;;;8331137;28;20145;-62
2022/12/04 15:39:13;;;;;;;22.70;11.55;;;;;;;;;;8329846;28;20067;-61
2022/12/04 15:43:15;;;;;;;42.50;10.95;;;;;;;;;;8329459;28;20032;-63
2022/12/04 15:47:18;;;;;;;30.85;10.90;;;;;;;;;;8326452;28;20156;-63
2022/12/04 15:51:19;;;;;;;33.78;11.40;;;;;;;;;;8329620;28;20020;-62
2022/12/04 15:55:21;;;;;;;20.27;10.38;;;;;;;;;;8326452;28;20028;-63
2022/12/04 15:59:21;;;;;;;20.67;10.13;;;;;;;;;;8327736;28;20481;-63
2022/12/04 16:03:23;;;;;;;21.77;11.00;;;;;;;;;;8329939;28;20458;-62
2022/12/04 16:07:25;;;;;;;17.00;9.60;;;;;;;;;;8325130;28;20029;-62
2022/12/04 16:11:30;;;;;;;22.42;11.20;;;;;;;;;;8326501;28;20434;-63
2022/12/04 16:15:36;;;;;;;22.27;12.25;;;;;;;;;;8324333;28;20045;-63
2022/12/04 16:19:38;;;;;;;20.95;11.70;;;;;;;;;;8327071;28;20028;-64
2022/12/04 16:23:38;;;;;;;25.10;12.85;;;;;;;;;;8327263;28;20024;-62
2022/12/04 16:27:38;;;;;;;21.38;12.35;;;;;;;;;;8323861;28;20020;-62
2022/12/04 16:31:38;;;;;;;23.60;11.85;;;;;;;;;;8324603;28;20044;-64
2022/12/04 16:35:38;;;;;;;22.13;12.57;;;;;;;;;;8323493;28;20129;-63
2022/12/04 16:39:39;;;;;;;30.17;13.00;;;;;;;;;;8323324;28;20418;-62
2022/12/04 16:43:39;;;;;;;25.35;12.48;;;;;;;;;;8325661;28;20398;-62
2022/12/04 16:47:39;;;;;;;23.35;13.05;;;;;;;;;;8325348;28;20060;-62
2022/12/04 16:51:42;;;;;;;25.15;12.73;;;;;;;;;;8324794;28;20279;-63
2022/12/04 16:55:44;;;;;;;27.77;13.15;;;;;;;;;;8324268;28;20028;-62
2022/12/04 16:59:44;;;;;;;27.15;13.68;;;;;;;;;;8324310;28;20476;-62
2022/12/04 17:03:44;;;;;;;27.08;13.23;;;;;;;;;;8326520;28;20032;-62
2022/12/04 17:07:44;;;;;;;24.98;13.40;;;;;;;;;;8324551;28;20035;-62
2022/12/04 17:11:45;;;;;;;28.40;12.20;;;;;;;;;;8325306;28;20472;-62
2022/12/04 17:15:45;;;;;;;23.63;12.60;;;;;;;;;;8324937;28;20041;-62
2022/12/04 17:19:45;;;;;;;25.67;13.15;;;;;;;;;;8325603;28;20382;-63
2022/12/04 17:23:45;;;;;;;21.30;11.17;;;;;;;;;;8325814;28;20645;-63
2022/12/04 17:27:45;;;;;;;27.90;13.20;;;;;;;;;;8325372;28;20851;-63
2022/12/04 17:31:46;;;;;;;33.97;12.73;;;;;;;;;;8324761;28;20815;-63
2022/12/04 17:35:46;;;;;;;43.50;13.45;;;;;;;;;;8323071;28;20021;-62
2022/12/04 17:39:46;;;;;;;25.60;12.05;;;;;;;;;;8325251;28;20063;-62
2022/12/04 17:43:47;;;;;;;23.85;13.05;;;;;;;;;;8323844;28;20484;-63
2022/12/04 17:47:47;;;;;;;32.65;12.60;;;;;;;;;;8325300;28;20360;-63
2022/12/04 17:51:47;;;;;;;37.83;12.77;;;;;;;;;;8323080;28;20120;-63
2022/12/04 17:55:47;;;;;;;20.67;11.40;;;;;;;;;;8324233;28;20616;-63
2022/12/04 17:59:48;;;;;;;28.77;13.00;;;;;;;;;;8323429;28;20020;-62
2022/12/04 18:03:49;;;;;;;21.30;12.77;;;;;;;;;;8325696;28;20032;-62
2022/12/04 18:07:49;;;;;;;31.77;13.25;;;;;;;;;;8322711;28;20056;-64
2022/12/04 18:11:49;;;;;;;25.00;12.70;;;;;;;;;;8324366;28;20021;-63
2022/12/04 18:15:50;;;;;;;23.25;12.50;;;;;;;;;;8324317;28;20072;-62
2022/12/04 18:19:50;;;;;;;25.05;12.98;;;;;;;;;;8324967;28;20013;-62
2022/12/04 18:23:50;;;;;;;21.70;11.30;;;;;;;;;;8325631;28;20024;-62
2022/12/04 18:27:51;;;;;;;20.17;11.43;;;;;;;;;;8323176;28;20025;-62
2022/12/04 18:31:51;;;;;;;25.10;12.68;;;;;;;;;;8328255;28;20128;-63
2022/12/04 18:35:53;;;;;;;22.92;11.50;;;;;;;;;;8329531;28;20048;-62
2022/12/04 18:39:53;;;;;;;19.83;11.13;;;;;;;;;;8329242;28;20366;-62
2022/12/04 18:43:53;;;;;;;18.15;11.07;;;;;;;;;;8330025;28;20895;-63
2022/12/04 18:47:53;;;;;;;26.42;14.13;;;;;;;;;;8329361;28;20437;-63
2022/12/04 18:51:54;;;;;;;25.35;12.63;;;;;;;;;;8327701;28;20024;-63
2022/12/04 18:55:54;;;;;;;39.88;19.55;;;;;;;;;;8328251;28;20031;-62
2022/12/04 18:59:54;;;;;;;37.58;15.90;;;;;;;;;;8330859;28;20013;-63
2022/12/04 19:03:56;;;;;;;25.85;14.88;;;;;;;;;;8328713;28;20156;-62
2022/12/04 19:07:57;;;;;;;24.67;13.25;;;;;;;;;;8330144;28;20013;-62
2022/12/04 19:11:58;;;;;;;22.58;12.38;;;;;;;;;;8329792;28;20644;-63
2022/12/04 19:15:58;;;;;;;23.67;11.43;;;;;;;;;;8328245;28;20056;-62
2022/12/04 19:19:59;;;;;;;23.65;13.77;;;;;;;;;;8329312;28;20100;-62
2022/12/04 19:23:59;;;;;;;21.00;12.07;;;;;;;;;;8329298;28;20031;-62
2022/12/04 19:27:59;;;;;;;22.20;12.68;;;;;;;;;;8330534;28;20017;-64
2022/12/04 19:31:59;;;;;;;22.67;12.88;;;;;;;;;;8327198;28;20611;-63
2022/12/04 19:36:01;;;;;;;23.15;12.60;;;;;;;;;;8327520;28;21096;-63
2022/12/04 19:40:01;;;;;;;21.23;12.30;;;;;;;;;;8327535;28;20059;-62
2022/12/04 19:44:02;;;;;;;22.93;11.87;;;;;;;;;;8328049;28;20440;-63
2022/12/04 19:48:02;;;;;;;22.08;11.95;;;;;;;;;;8326908;28;20571;-62
2022/12/04 19:52:02;;;;;;;16.53;10.03;;;;;;;;;;8327929;28;20020;-62
2022/12/04 19:56:06;;;;;;;18.20;11.40;;;;;;;;;;8326571;28;20287;-64
2022/12/04 20:00:06;;;;;;;17.07;10.97;;;;;;;;;;8325052;28;20262;-63
2022/12/04 20:04:07;;;;;;;18.63;11.00;;;;;;;;;;8326729;28;20152;-62
2022/12/04 20:08:07;;;;;;;18.42;11.18;;;;;;;;;;8324851;28;20027;-62
2022/12/04 20:12:07;;;;;;;18.02;10.50;;;;;;;;;;8328469;28;20091;-62
2022/12/04 20:16:09;;;;;;;15.17;9.67;;;;;;;;;;8325210;28;20044;-62
2022/12/04 20:20:09;;;;;;;18.23;10.88;;;;;;;;;;8325651;28;20345;-63
2022/12/04 20:24:10;;;;;;;19.23;10.93;;;;;;;;;;8328644;28;20029;-62
2022/12/04 20:28:10;;;;;;;17.88;10.98;;;;;;;;;;8326247;28;20303;-62
2022/12/04 20:32:11;;;;;;;15.68;10.57;;;;;;;;;;8326155;28;20483;-62
2022/12/04 20:36:12;;;;;;;17.70;11.07;;;;;;;;;;8327637;28;20033;-63
2022/12/04 20:40:13;;;;;;;17.40;10.98;;;;;;;;;;8326752;28;20135;-63
2022/12/04 20:44:14;;;;;;;20.52;11.18;;;;;;;;;;8324185;28;20560;-63
2022/12/04 20:48:15;;;;;;;19.70;12.15;;;;;;;;;;8329595;28;20378;-63
2022/12/04 20:52:15;;;;;;;20.55;11.90;;;;;;;;;;8328579;28;20032;-62
2022/12/04 20:56:16;;;;;;;19.30;11.77;;;;;;;;;;8329269;28;20368;-62
2022/12/04 21:00:16;;;;;;;19.33;11.00;;;;;;;;;;8328840;28;20358;-62
2022/12/04 21:04:17;;;;;;;17.27;11.63;;;;;;;;;;8330341;28;20441;-62
2022/12/04 21:08:51;;;;;;;17.33;11.10;;;;;;;;;;8331445;28;20043;-63
2022/12/04 21:16:57;;;;;;;16.92;11.18;;;;;;;;;;8328044;28;20556;-62
2022/12/04 21:21:00;;;;;;;18.33;10.23;;;;;;;;;;8327937;28;20024;-62
2022/12/04 21:25:02;;;;;;;18.65;10.48;;;;;;;;;;8328905;28;20013;-63
2022/12/04 21:29:03;;;;;;;21.30;11.90;;;;;;;;;;8330466;28;20029;-62
2022/12/04 21:33:03;;;;;;;17.35;10.30;;;;;;;;;;8329333;28;20045;-63
2022/12/04 21:37:03;;;;;;;18.75;10.73;;;;;;;;;;8329176;28;20526;-63
2022/12/04 21:41:05;;;;;;;16.13;10.52;;;;;;;;;;8331234;28;20024;-63
2022/12/04 21:45:06;;;;;;;16.35;9.32;;;;;;;;;;8327377;28;20021;-63
2022/12/04 21:49:07;;;;;;;16.10;9.70;;;;;;;;;;8329670;28;20107;-62
2022/12/04 21:53:07;;;;;;;16.17;9.60;;;;;;;;;;8329591;28;20052;-63
2022/12/04 21:57:07;;;;;;;17.08;10.88;;;;;;;;;;8327883;28;20260;-64
2022/12/04 22:01:11;;;;;;;17.58;10.07;;;;;;;;;;8328697;28;20508;-62
2022/12/04 22:05:11;;;;;;;15.80;9.63;;;;;;;;;;8329644;28;20083;-63
2022/12/04 22:09:12;;;;;;;14.90;9.55;;;;;;;;;;8335227;28;20337;-66
2022/12/04 22:13:12;;;;;;;16.63;10.25;;;;;;;;;;8335554;28;20028;-62
2022/12/04 22:17:12;;;;;;;15.48;9.60;;;;;;;;;;8333360;28;20561;-63
2022/12/04 22:21:13;;;;;;;15.15;9.65;;;;;;;;;;8334398;28;20029;-62
2022/12/04 22:25:14;;;;;;;17.60;10.77;;;;;;;;;;8335323;28;20021;-62
2022/12/04 22:29:14;;;;;;;17.65;10.05;;;;;;;;;;8331447;28;20539;-63
2022/12/04 22:33:14;;;;;;;15.50;10.02;;;;;;;;;;8333263;28;20471;-62
2022/12/04 22:37:14;;;;;;;14.00;9.75;;;;;;;;;;8332616;28;20021;-62
2022/12/04 22:41:16;;;;;;;16.55;9.57;;;;;;;;;;8335918;28;20055;-62
2022/12/04 22:45:16;;;;;;;17.02;10.45;;;;;;;;;;8334108;28;20028;-63
2022/12/04 22:49:16;;;;;;;16.85;9.70;;;;;;;;;;8335119;28;20364;-62
2022/12/04 22:53:17;;;;;;;17.20;10.77;;;;;;;;;;8332493;28;20028;-62
2022/12/04 22:57:17;;;;;;;16.50;9.90;;;;;;;;;;8336950;28;20056;-63
2022/12/04 23:01:19;;;;;;;16.10;10.93;;;;;;;;;;8339514;28;20040;-62
2022/12/04 23:05:19;;;;;;;18.00;11.05;;;;;;;;;;8338889;28;20048;-63
2022/12/04 23:09:19;;;;;;;15.20;10.13;;;;;;;;;;8340570;28;20029;-63
2022/12/04 23:13:19;;;;;;;18.48;10.32;;;;;;;;;;8340742;28;20503;-63
2022/12/04 23:17:21;;;;;;;15.80;10.05;;;;;;;;;;8338343;28;20497;-62
2022/12/04 23:21:22;;;;;;;15.13;9.68;;;;;;;;;;8340154;28;20299;-63
2022/12/04 23:25:22;;;;;;;16.00;9.95;;;;;;;;;;8338814;28;20032;-63
2022/12/04 23:29:22;;;;;;;24.05;11.07;;;;;;;;;;8336291;28;20144;-63
2022/12/04 23:33:22;;;;;;;16.63;10.32;;;;;;;;;;8334103;28;20040;-62
2022/12/04 23:37:23;;;;;;;15.18;9.48;;;;;;;;;;8336246;28;20032;-64
2022/12/04 23:41:24;;;;;;;19.98;9.88;;;;;;;;;;8339012;28;20433;-62
2022/12/04 23:45:24;;;;;;;22.73;9.57;;;;;;;;;;8335461;28;20020;-63
2022/12/04 23:49:25;;;;;;;12.40;8.90;;;;;;;;;;8337464;28;20936;-62
2022/12/04 23:53:25;;;;;;;12.13;9.25;;;;;;;;;;8338065;28;20100;-62
2022/12/04 23:57:27;;;;;;;16.42;8.95;;;;;;;;;;8337231;28;20080;-63
